createdAt,value
2017-03-05T00:01:05.875Z,987.97
2017-03-05T00:02:18.563Z,988.01
2017-03-05T00:03:31.678Z,988
2017-03-05T00:04:44.349Z,987.98
2017-03-05T00:05:57.393Z,987.98
2017-03-05T00:07:10.088Z,987.99
2017-03-05T00:08:22.762Z,988.05
2017-03-05T00:09:35.804Z,988.03
2017-03-05T00:10:48.885Z,988.08
2017-03-05T00:12:02.226Z,988.1
2017-03-05T00:13:14.935Z,988.12
2017-03-05T00:14:27.967Z,988.12
2017-03-05T00:15:41.055Z,988.1
2017-03-05T00:16:54.175Z,988.13
2017-03-05T00:18:07.305Z,988.17
2017-03-05T00:19:19.981Z,988.17
2017-03-05T00:20:33.053Z,988.21
2017-03-05T00:21:46.157Z,988.26
2017-03-05T00:22:59.214Z,988.24
2017-03-05T00:24:12.260Z,988.29
2017-03-05T00:25:24.578Z,988.28
2017-03-05T00:26:37.646Z,988.3
2017-03-05T00:27:50.696Z,988.32
2017-03-05T00:29:03.741Z,988.3
2017-03-05T00:30:16.812Z,988.34
2017-03-05T00:31:29.485Z,988.32
2017-03-05T00:32:42.581Z,988.28
2017-03-05T00:33:55.705Z,988.36
2017-03-05T00:35:08.761Z,988.34
2017-03-05T00:36:21.789Z,988.37
2017-03-05T00:37:34.852Z,988.41
2017-03-05T00:38:47.906Z,988.48
2017-03-05T00:40:01.230Z,988.55
2017-03-05T00:41:13.896Z,988.58
2017-03-05T00:42:26.240Z,988.61
2017-03-05T00:43:39.291Z,988.62
2017-03-05T00:44:52.360Z,988.66
2017-03-05T00:46:05.454Z,988.66
2017-03-05T00:47:18.507Z,988.65
2017-03-05T00:48:31.565Z,988.69
2017-03-05T00:49:44.622Z,988.72
2017-03-05T00:50:57.719Z,988.74
2017-03-05T00:52:10.810Z,988.79
2017-03-05T00:53:23.874Z,988.87
2017-03-05T00:54:36.954Z,988.85
2017-03-05T00:55:50.066Z,988.89
2017-03-05T00:57:03.162Z,988.86
2017-03-05T00:58:16.196Z,988.79
2017-03-05T00:59:29.287Z,988.81
2017-03-05T01:00:42.352Z,988.81
2017-03-05T01:01:55.457Z,988.84
2017-03-05T01:03:08.528Z,988.89
2017-03-05T01:04:21.629Z,988.88
2017-03-05T01:05:34.720Z,988.92
2017-03-05T01:06:47.789Z,988.99
2017-03-05T01:08:00.875Z,989.03
2017-03-05T01:09:13.975Z,989.08
2017-03-05T01:10:27.078Z,989.09
2017-03-05T01:11:40.379Z,989.1
2017-03-05T01:12:53.435Z,989.07
2017-03-05T01:14:06.511Z,989.06
2017-03-05T01:15:19.187Z,989.07
2017-03-05T01:16:32.232Z,989.08
2017-03-05T01:17:45.304Z,989.03
2017-03-05T01:18:58.400Z,989.12
2017-03-05T01:20:11.484Z,989.11
2017-03-05T01:21:24.157Z,989.15
2017-03-05T01:22:37.251Z,989.16
2017-03-05T01:23:50.336Z,989.21
2017-03-05T01:25:03.425Z,989.26
2017-03-05T01:26:16.151Z,989.26
2017-03-05T01:27:29.245Z,989.18
2017-03-05T01:28:42.316Z,989.31
2017-03-05T01:29:55.400Z,989.26
2017-03-05T01:31:08.115Z,989.27
2017-03-05T01:32:21.204Z,989.31
2017-03-05T01:33:34.246Z,989.31
2017-03-05T01:34:47.372Z,989.36
2017-03-05T01:36:00.480Z,989.38
2017-03-05T01:37:13.182Z,989.32
2017-03-05T01:38:25.879Z,989.39
2017-03-05T01:39:38.950Z,989.38
2017-03-05T01:40:51.975Z,989.42
2017-03-05T01:42:05.018Z,989.4
2017-03-05T01:43:17.716Z,989.4
2017-03-05T01:44:30.365Z,989.48
2017-03-05T01:45:43.429Z,989.5
2017-03-05T01:46:56.505Z,989.47
2017-03-05T01:48:09.604Z,989.43
2017-03-05T01:49:22.684Z,989.4
2017-03-05T01:50:35.734Z,989.41
2017-03-05T01:51:48.827Z,989.45
2017-03-05T01:53:01.886Z,989.41
2017-03-05T01:54:14.931Z,989.42
2017-03-05T01:55:27.972Z,989.39
2017-03-05T01:56:41.064Z,989.47
2017-03-05T01:57:54.106Z,989.47
2017-03-05T01:59:07.188Z,989.5
2017-03-05T02:00:19.911Z,989.53
2017-03-05T02:01:32.932Z,989.5
2017-03-05T02:02:46.044Z,989.56
2017-03-05T02:03:59.095Z,989.59
2017-03-05T02:05:11.764Z,989.61
2017-03-05T02:06:24.062Z,989.64
2017-03-05T02:07:37.100Z,989.61
2017-03-05T02:08:50.198Z,989.66
2017-03-05T02:10:03.269Z,989.62
2017-03-05T02:11:16.395Z,989.69
2017-03-05T02:12:29.457Z,989.75
2017-03-05T02:13:42.515Z,989.71
2017-03-05T02:14:55.574Z,989.75
2017-03-05T02:16:08.285Z,989.84
2017-03-05T02:17:21.349Z,989.86
2017-03-05T02:18:34.440Z,989.91
2017-03-05T02:19:47.520Z,989.96
2017-03-05T02:21:00.207Z,989.97
2017-03-05T02:22:13.559Z,989.99
2017-03-05T02:23:26.594Z,989.96
2017-03-05T02:24:39.299Z,990.02
2017-03-05T02:25:52.374Z,990.01
2017-03-05T02:27:05.445Z,990.03
2017-03-05T02:28:18.512Z,990.03
2017-03-05T02:29:31.558Z,989.99
2017-03-05T02:30:44.606Z,989.94
2017-03-05T02:31:57.703Z,989.93
2017-03-05T02:33:10.373Z,989.9
2017-03-05T02:34:23.460Z,989.85
2017-03-05T02:35:36.541Z,989.82
2017-03-05T02:36:49.626Z,989.84
2017-03-05T02:38:02.685Z,989.83
2017-03-05T02:39:16.025Z,989.89
2017-03-05T02:40:29.123Z,989.94
2017-03-05T02:41:42.210Z,989.95
2017-03-05T02:42:55.291Z,990.04
2017-03-05T02:44:08.359Z,990.1
2017-03-05T02:45:21.412Z,990.11
2017-03-05T02:46:34.106Z,990.15
2017-03-05T02:47:47.175Z,990.17
2017-03-05T02:49:00.271Z,990.22
2017-03-05T02:50:13.385Z,990.17
2017-03-05T02:51:26.463Z,990.2
2017-03-05T02:52:39.555Z,990.23
2017-03-05T02:53:52.625Z,990.22
2017-03-05T02:55:05.692Z,990.28
2017-03-05T02:56:18.813Z,990.29
2017-03-05T02:57:31.916Z,990.33
2017-03-05T02:58:44.613Z,990.41
2017-03-05T02:59:57.931Z,990.41
2017-03-05T03:01:10.647Z,990.41
2017-03-05T03:02:23.727Z,990.43
2017-03-05T03:03:36.435Z,990.44
2017-03-05T03:04:49.481Z,990.37
2017-03-05T03:06:02.537Z,990.37
2017-03-05T03:07:15.613Z,990.35
2017-03-05T03:08:28.659Z,990.31
2017-03-05T03:09:41.739Z,990.29
2017-03-05T03:10:54.813Z,990.25
2017-03-05T03:12:07.867Z,990.21
2017-03-05T03:13:20.927Z,990.25
2017-03-05T03:14:33.634Z,990.31
2017-03-05T03:15:46.718Z,990.37
2017-03-05T03:16:59.414Z,990.41
2017-03-05T03:18:12.510Z,990.48
2017-03-05T03:19:25.560Z,990.49
2017-03-05T03:20:38.616Z,990.52
2017-03-05T03:21:51.690Z,990.53
2017-03-05T03:23:04.747Z,990.59
2017-03-05T03:24:17.426Z,990.56
2017-03-05T03:25:30.114Z,990.66
2017-03-05T03:26:43.489Z,990.61
2017-03-05T03:27:56.618Z,990.64
2017-03-05T03:29:09.299Z,990.7
2017-03-05T03:30:21.996Z,990.8
2017-03-05T03:31:35.065Z,990.79
2017-03-05T03:32:48.147Z,990.86
2017-03-05T03:34:01.219Z,990.88
2017-03-05T03:35:13.938Z,990.99
2017-03-05T03:36:26.659Z,991.05
2017-03-05T03:37:40.008Z,991.1
2017-03-05T03:38:53.125Z,991.14
2017-03-05T03:40:06.211Z,991.22
2017-03-05T03:41:19.331Z,991.21
2017-03-05T03:42:32.381Z,991.24
2017-03-05T03:43:45.459Z,991.33
2017-03-05T03:44:58.574Z,991.43
2017-03-05T03:46:10.899Z,991.44
2017-03-05T03:47:23.985Z,991.44
2017-03-05T03:48:37.071Z,991.47
2017-03-05T03:49:50.144Z,991.46
2017-03-05T03:51:03.224Z,991.51
2017-03-05T03:52:16.284Z,991.53
2017-03-05T03:53:28.973Z,991.5
2017-03-05T03:54:42.037Z,991.47
2017-03-05T03:55:55.135Z,991.45
2017-03-05T03:57:07.829Z,991.39
2017-03-05T03:58:20.874Z,991.47
2017-03-05T03:59:33.532Z,991.51
2017-03-05T04:00:46.606Z,991.57
2017-03-05T04:01:59.708Z,991.64
2017-03-05T04:03:12.384Z,991.7
2017-03-05T04:04:25.462Z,991.73
2017-03-05T04:05:38.207Z,991.75
2017-03-05T04:06:51.284Z,991.77
2017-03-05T04:08:04.377Z,991.77
2017-03-05T04:09:17.451Z,991.83
2017-03-05T04:10:30.559Z,991.82
2017-03-05T04:11:43.216Z,991.84
2017-03-05T04:12:56.260Z,991.85
2017-03-05T04:14:09.348Z,991.85
2017-03-05T04:15:22.050Z,991.91
2017-03-05T04:16:35.119Z,991.91
2017-03-05T04:17:48.261Z,991.97
2017-03-05T04:19:01.365Z,992.03
2017-03-05T04:20:14.437Z,992.03
2017-03-05T04:21:27.110Z,992.03
2017-03-05T04:22:39.816Z,992.07
2017-03-05T04:23:52.901Z,992.09
2017-03-05T04:25:06.027Z,992.09
2017-03-05T04:26:19.090Z,992.12
2017-03-05T04:27:32.162Z,992.14
2017-03-05T04:28:45.253Z,992.11
2017-03-05T04:29:58.326Z,992.16
2017-03-05T04:31:11.391Z,992.14
2017-03-05T04:32:24.116Z,992.17
2017-03-05T04:33:37.217Z,992.18
2017-03-05T04:34:50.329Z,992.17
2017-03-05T04:36:03.408Z,992.21
2017-03-05T04:37:16.499Z,992.2
2017-03-05T04:38:29.574Z,992.21
2017-03-05T04:39:42.634Z,992.2
2017-03-05T04:40:55.679Z,992.27
2017-03-05T04:42:08.750Z,992.27
2017-03-05T04:43:21.413Z,992.32
2017-03-05T04:44:34.124Z,992.36
2017-03-05T04:45:47.196Z,992.39
2017-03-05T04:47:00.493Z,992.39
2017-03-05T04:48:13.187Z,992.4
2017-03-05T04:49:26.236Z,992.34
2017-03-05T04:50:38.921Z,992.35
2017-03-05T04:51:51.976Z,992.39
2017-03-05T04:53:05.075Z,992.38
2017-03-05T04:54:17.763Z,992.42
2017-03-05T04:55:30.459Z,992.46
2017-03-05T04:56:43.514Z,992.49
2017-03-05T04:57:56.548Z,992.49
2017-03-05T04:59:09.225Z,992.54
2017-03-05T05:00:21.897Z,992.56
2017-03-05T05:01:34.592Z,992.54
2017-03-05T05:02:47.655Z,992.6
2017-03-05T05:04:00.754Z,992.57
2017-03-05T05:05:13.847Z,992.59
2017-03-05T05:06:26.503Z,992.57
2017-03-05T05:07:39.567Z,992.59
2017-03-05T05:08:52.667Z,992.56
2017-03-05T05:10:05.692Z,992.53
2017-03-05T05:11:18.343Z,992.54
2017-03-05T05:12:31.014Z,992.58
2017-03-05T05:13:44.079Z,992.57
2017-03-05T05:14:57.167Z,992.56
2017-03-05T05:16:10.209Z,992.59
2017-03-05T05:17:22.917Z,992.6
2017-03-05T05:18:35.984Z,992.66
2017-03-05T05:19:49.288Z,992.68
2017-03-05T05:21:02.377Z,992.69
2017-03-05T05:22:15.490Z,992.7
2017-03-05T05:23:28.171Z,992.76
2017-03-05T05:24:41.223Z,992.75
2017-03-05T05:25:54.305Z,992.79
2017-03-05T05:27:07.388Z,992.77
2017-03-05T05:28:20.481Z,992.84
2017-03-05T05:29:33.576Z,992.84
2017-03-05T05:30:46.702Z,992.84
2017-03-05T05:31:59.792Z,992.84
2017-03-05T05:33:12.537Z,992.93
2017-03-05T05:34:25.681Z,992.95
2017-03-05T05:35:38.751Z,992.97
2017-03-05T05:36:51.824Z,992.98
2017-03-05T05:38:04.935Z,993.01
2017-03-05T05:39:18.009Z,993.01
2017-03-05T05:40:30.714Z,993.04
2017-03-05T05:41:43.776Z,993.08
2017-03-05T05:42:56.830Z,993.1
2017-03-05T05:44:09.879Z,993.11
2017-03-05T05:45:22.975Z,993.1
2017-03-05T05:46:36.039Z,993.16
2017-03-05T05:47:49.116Z,993.15
2017-03-05T05:49:02.174Z,993.21
2017-03-05T05:50:14.869Z,993.12
2017-03-05T05:51:27.527Z,993.23
2017-03-05T05:52:40.645Z,993.25
2017-03-05T05:53:53.692Z,993.24
2017-03-05T05:55:06.782Z,993.25
2017-03-05T05:56:19.859Z,993.22
2017-03-05T05:57:32.169Z,993.31
2017-03-05T05:58:44.851Z,993.3
2017-03-05T05:59:57.950Z,993.3
2017-03-05T06:01:10.647Z,993.27
2017-03-05T06:02:23.740Z,993.3
2017-03-05T06:03:36.815Z,993.33
2017-03-05T06:04:49.920Z,993.36
2017-03-05T06:06:02.978Z,993.39
2017-03-05T06:07:15.712Z,993.37
2017-03-05T06:08:28.692Z,993.43
2017-03-05T06:09:41.742Z,993.44
2017-03-05T06:10:54.816Z,993.5
2017-03-05T06:12:07.857Z,993.51
2017-03-05T06:13:20.571Z,993.51
2017-03-05T06:14:33.645Z,993.59
2017-03-05T06:15:46.737Z,993.57
2017-03-05T06:16:59.822Z,993.61
2017-03-05T06:18:12.913Z,993.63
2017-03-05T06:19:25.853Z,993.64
2017-03-05T06:20:38.927Z,993.67
2017-03-05T06:21:51.988Z,993.69
2017-03-05T06:23:05.069Z,993.7
2017-03-05T06:24:18.129Z,993.72
2017-03-05T06:25:31.192Z,993.7
2017-03-05T06:26:44.257Z,993.69
2017-03-05T06:27:57.367Z,993.74
2017-03-05T06:29:10.427Z,993.78
2017-03-05T06:30:23.147Z,993.79
2017-03-05T06:31:35.841Z,993.8
2017-03-05T06:32:48.907Z,993.84
2017-03-05T06:34:01.954Z,993.84
2017-03-05T06:35:15.041Z,993.86
2017-03-05T06:36:27.725Z,993.94
2017-03-05T06:37:40.813Z,993.9
2017-03-05T06:38:53.887Z,993.97
2017-03-05T06:40:06.953Z,993.95
2017-03-05T06:41:19.275Z,994
2017-03-05T06:42:31.951Z,994.02
2017-03-05T06:43:45.004Z,994.09
2017-03-05T06:44:58.063Z,994.06
2017-03-05T06:46:11.430Z,994.08
2017-03-05T06:47:24.526Z,994.1
2017-03-05T06:48:37.608Z,994.12
2017-03-05T06:49:50.659Z,994.09
2017-03-05T06:51:03.722Z,994.12
2017-03-05T06:52:16.792Z,994.13
2017-03-05T06:53:29.838Z,994.12
2017-03-05T06:54:42.890Z,994.12
2017-03-05T06:55:55.959Z,994.15
2017-03-05T06:57:09.069Z,994.17
2017-03-05T06:58:22.151Z,994.19
2017-03-05T06:59:34.819Z,994.21
2017-03-05T07:00:47.869Z,994.25
2017-03-05T07:02:00.960Z,994.29
2017-03-05T07:03:14.034Z,994.29
2017-03-05T07:04:27.079Z,994.37
2017-03-05T07:05:39.394Z,994.33
2017-03-05T07:06:52.456Z,994.39
2017-03-05T07:08:05.789Z,994.42
2017-03-05T07:09:18.827Z,994.38
2017-03-05T07:10:31.881Z,994.43
2017-03-05T07:11:44.982Z,994.49
2017-03-05T07:12:58.040Z,994.54
2017-03-05T07:14:11.100Z,994.55
2017-03-05T07:15:24.218Z,994.61
2017-03-05T07:16:36.914Z,994.6
2017-03-05T07:17:49.991Z,994.62
2017-03-05T07:19:03.311Z,994.63
2017-03-05T07:20:16.379Z,994.65
2017-03-05T07:21:29.475Z,994.69
2017-03-05T07:22:42.171Z,994.75
2017-03-05T07:23:55.282Z,994.73
2017-03-05T07:25:08.377Z,994.82
2017-03-05T07:26:21.033Z,994.83
2017-03-05T07:27:34.123Z,994.86
2017-03-05T07:28:47.194Z,994.88
2017-03-05T07:30:00.264Z,994.95
2017-03-05T07:31:12.914Z,994.89
2017-03-05T07:32:25.624Z,994.96
2017-03-05T07:33:38.682Z,994.96
2017-03-05T07:34:51.727Z,994.98
2017-03-05T07:36:04.837Z,995.01
2017-03-05T07:37:17.890Z,994.97
2017-03-05T07:38:30.990Z,994.99
2017-03-05T07:39:43.677Z,995.03
2017-03-05T07:40:56.803Z,995.02
2017-03-05T07:42:09.902Z,995.1
2017-03-05T07:43:23.028Z,995.07
2017-03-05T07:44:36.115Z,995.07
2017-03-05T07:45:49.161Z,995.14
2017-03-05T07:47:02.235Z,995.13
2017-03-05T07:48:15.306Z,995.2
2017-03-05T07:49:28.033Z,995.18
2017-03-05T07:50:41.144Z,995.16
2017-03-05T07:51:54.215Z,995.22
2017-03-05T07:53:07.287Z,995.28
2017-03-05T07:54:19.998Z,995.26
2017-03-05T07:55:32.657Z,995.27
2017-03-05T07:56:45.804Z,995.25
2017-03-05T07:57:58.889Z,995.21
2017-03-05T07:59:11.571Z,995.25
2017-03-05T08:00:24.239Z,995.24
2017-03-05T08:01:37.337Z,995.3
2017-03-05T08:02:50.412Z,995.31
2017-03-05T08:04:03.496Z,995.43
2017-03-05T08:05:16.545Z,995.51
2017-03-05T08:06:29.641Z,995.46
2017-03-05T08:07:42.691Z,995.5
2017-03-05T08:08:55.337Z,995.5
2017-03-05T08:10:08.384Z,995.41
2017-03-05T08:11:21.452Z,995.46
2017-03-05T08:12:34.547Z,995.5
2017-03-05T08:13:47.267Z,995.46
2017-03-05T08:15:00.342Z,995.45
2017-03-05T08:16:13.433Z,995.47
2017-03-05T08:17:26.081Z,995.48
2017-03-05T08:18:38.779Z,995.48
2017-03-05T08:19:51.824Z,995.5
2017-03-05T08:21:04.946Z,995.53
2017-03-05T08:22:18.009Z,995.58
2017-03-05T08:23:31.083Z,995.62
2017-03-05T08:24:44.183Z,995.57
2017-03-05T08:25:57.260Z,995.61
2017-03-05T08:27:10.338Z,995.64
2017-03-05T08:28:23.416Z,995.6
2017-03-05T08:29:36.090Z,995.66
2017-03-05T08:30:49.150Z,995.67
2017-03-05T08:32:01.823Z,995.65
2017-03-05T08:33:14.505Z,995.7
2017-03-05T08:34:27.801Z,995.71
2017-03-05T08:35:39.718Z,995.73
2017-03-05T08:36:52.766Z,995.7
2017-03-05T08:38:05.833Z,995.81
2017-03-05T08:39:18.505Z,995.78
2017-03-05T08:40:31.176Z,995.81
2017-03-05T08:41:44.202Z,995.78
2017-03-05T08:42:57.243Z,995.82
2017-03-05T08:44:10.317Z,995.81
2017-03-05T08:45:23.009Z,995.9
2017-03-05T08:46:36.105Z,995.86
2017-03-05T08:47:48.785Z,995.99
2017-03-05T08:49:01.870Z,995.91
2017-03-05T08:50:14.620Z,995.95
2017-03-05T08:51:27.713Z,995.96
2017-03-05T08:52:40.387Z,996
2017-03-05T08:53:53.113Z,995.97
2017-03-05T08:55:06.205Z,996.01
2017-03-05T08:56:19.252Z,996.05
2017-03-05T08:57:32.339Z,996.06
2017-03-05T08:58:45.407Z,996.15
2017-03-05T08:59:58.463Z,996.13
2017-03-05T09:01:11.534Z,996.07
2017-03-05T09:02:24.625Z,996.19
2017-03-05T09:03:37.719Z,996.13
2017-03-05T09:04:50.769Z,996.11
2017-03-05T09:06:03.848Z,996.08
2017-03-05T09:07:16.856Z,996.1
2017-03-05T09:08:29.960Z,996.17
2017-03-05T09:09:43.027Z,996.2
2017-03-05T09:10:56.101Z,996.22
2017-03-05T09:12:08.794Z,996.24
2017-03-05T09:13:21.489Z,996.23
2017-03-05T09:14:34.560Z,996.26
2017-03-05T09:15:47.673Z,996.26
2017-03-05T09:17:00.752Z,996.36
2017-03-05T09:18:13.828Z,996.31
2017-03-05T09:19:26.893Z,996.35
2017-03-05T09:20:39.939Z,996.43
2017-03-05T09:21:53.009Z,996.48
2017-03-05T09:23:06.110Z,996.5
2017-03-05T09:24:18.812Z,996.51
2017-03-05T09:25:31.906Z,996.52
2017-03-05T09:26:44.641Z,996.5
2017-03-05T09:27:57.764Z,996.46
2017-03-05T09:29:10.839Z,996.45
2017-03-05T09:30:23.962Z,996.39
2017-03-05T09:31:37.020Z,996.42
2017-03-05T09:32:50.089Z,996.45
2017-03-05T09:34:03.144Z,996.53
2017-03-05T09:35:16.235Z,996.54
2017-03-05T09:36:29.335Z,996.54
2017-03-05T09:37:42.380Z,996.53
2017-03-05T09:38:55.070Z,996.55
2017-03-05T09:40:08.145Z,996.56
2017-03-05T09:41:20.836Z,996.54
2017-03-05T09:42:33.894Z,996.5
2017-03-05T09:43:46.589Z,996.58
2017-03-05T09:44:59.250Z,996.61
2017-03-05T09:46:12.370Z,996.69
2017-03-05T09:47:25.448Z,996.57
2017-03-05T09:48:38.524Z,996.67
2017-03-05T09:49:51.568Z,996.59
2017-03-05T09:51:04.629Z,996.69
2017-03-05T09:52:17.683Z,996.61
2017-03-05T09:53:30.749Z,996.64
2017-03-05T09:54:43.828Z,996.64
2017-03-05T09:55:56.897Z,996.66
2017-03-05T09:57:09.968Z,996.75
2017-03-05T09:58:22.657Z,996.76
2017-03-05T09:59:35.717Z,996.78
2017-03-05T10:00:49.034Z,996.81
2017-03-05T10:02:02.099Z,996.86
2017-03-05T10:03:14.789Z,996.79
2017-03-05T10:04:27.536Z,996.86
2017-03-05T10:05:40.590Z,996.89
2017-03-05T10:06:53.300Z,996.87
2017-03-05T10:08:06.390Z,997
2017-03-05T10:09:19.141Z,996.96
2017-03-05T10:10:32.246Z,996.92
2017-03-05T10:11:45.339Z,996.86
2017-03-05T10:12:58.404Z,996.9
2017-03-05T10:14:11.512Z,996.85
2017-03-05T10:15:24.632Z,996.85
2017-03-05T10:16:37.725Z,996.83
2017-03-05T10:17:50.870Z,996.84
2017-03-05T10:19:03.975Z,996.83
2017-03-05T10:20:17.066Z,996.84
2017-03-05T10:21:30.133Z,996.81
2017-03-05T10:22:43.279Z,996.78
2017-03-05T10:23:56.320Z,996.76
2017-03-05T10:25:09.423Z,996.85
2017-03-05T10:26:22.512Z,996.88
2017-03-05T10:27:35.207Z,996.82
2017-03-05T10:28:47.884Z,996.85
2017-03-05T10:30:00.958Z,996.85
2017-03-05T10:31:14.044Z,996.91
2017-03-05T10:32:27.124Z,996.85
2017-03-05T10:33:40.195Z,996.92
2017-03-05T10:34:53.291Z,996.93
2017-03-05T10:36:06.353Z,996.93
2017-03-05T10:37:19.060Z,996.89
2017-03-05T10:38:32.103Z,996.89
2017-03-05T10:39:45.171Z,996.94
2017-03-05T10:40:58.246Z,996.93
2017-03-05T10:42:11.359Z,996.93
2017-03-05T10:43:24.080Z,996.9
2017-03-05T10:44:36.783Z,996.9
2017-03-05T10:45:49.859Z,996.96
2017-03-05T10:47:02.967Z,996.96
2017-03-05T10:48:15.670Z,997.03
2017-03-05T10:49:27.947Z,997.01
2017-03-05T10:50:40.988Z,997.01
2017-03-05T10:51:53.326Z,997.01
2017-03-05T10:53:06.405Z,997.01
2017-03-05T10:54:19.525Z,997.04
2017-03-05T10:55:32.239Z,997
2017-03-05T10:56:45.339Z,997.04
2017-03-05T10:57:58.427Z,997.02
2017-03-05T10:59:11.498Z,997.04
2017-03-05T11:00:24.596Z,997.03
2017-03-05T11:01:37.921Z,997.03
2017-03-05T11:02:51.022Z,997.04
2017-03-05T11:04:04.110Z,997.11
2017-03-05T11:05:17.175Z,997.04
2017-03-05T11:06:29.523Z,997.01
2017-03-05T11:07:42.597Z,997.05
2017-03-05T11:08:55.647Z,997.07
2017-03-05T11:10:08.710Z,997.15
2017-03-05T11:11:21.747Z,997.24
2017-03-05T11:12:34.441Z,997.16
2017-03-05T11:13:47.526Z,997.15
2017-03-05T11:15:00.604Z,997.18
2017-03-05T11:16:13.315Z,997.05
2017-03-05T11:17:25.689Z,997.04
2017-03-05T11:18:38.388Z,997.01
2017-03-05T11:19:51.465Z,996.96
2017-03-05T11:21:04.561Z,997.04
2017-03-05T11:22:17.708Z,997.03
2017-03-05T11:23:31.051Z,997
2017-03-05T11:24:44.118Z,997.04
2017-03-05T11:25:57.192Z,997.02
2017-03-05T11:27:10.277Z,996.97
2017-03-05T11:28:22.574Z,996.96
2017-03-05T11:29:35.277Z,997.03
2017-03-05T11:30:48.323Z,997.02
2017-03-05T11:32:01.410Z,996.9
2017-03-05T11:33:14.518Z,996.98
2017-03-05T11:34:27.608Z,997.04
2017-03-05T11:35:39.910Z,997.04
2017-03-05T11:36:52.980Z,996.99
2017-03-05T11:38:06.093Z,997.07
2017-03-05T11:39:18.794Z,997.02
2017-03-05T11:40:31.889Z,997.01
2017-03-05T11:41:44.960Z,996.97
2017-03-05T11:42:57.676Z,996.87
2017-03-05T11:44:10.811Z,996.89
2017-03-05T11:45:24.142Z,996.84
2017-03-05T11:46:37.224Z,996.88
2017-03-05T11:47:50.319Z,996.81
2017-03-05T11:49:03.385Z,996.81
2017-03-05T11:50:16.473Z,996.82
2017-03-05T11:51:28.393Z,996.86
2017-03-05T11:52:41.493Z,996.92
2017-03-05T11:53:54.539Z,996.89
2017-03-05T11:55:07.642Z,996.91
2017-03-05T11:56:20.331Z,996.98
2017-03-05T11:57:33.398Z,996.93
2017-03-05T11:58:46.476Z,997.03
2017-03-05T11:59:59.525Z,997.15
2017-03-05T12:01:12.911Z,997.1
2017-03-05T12:02:25.581Z,997.11
2017-03-05T12:03:38.687Z,997.13
2017-03-05T12:04:51.783Z,997.06
2017-03-05T12:06:04.847Z,997.04
2017-03-05T12:07:17.943Z,997.05
2017-03-05T12:08:31.022Z,997.08
2017-03-05T12:09:43.689Z,997.09
2017-03-05T12:10:56.814Z,997.03
2017-03-05T12:12:09.876Z,997.07
2017-03-05T12:13:22.953Z,997
2017-03-05T12:14:35.693Z,996.98
2017-03-05T12:15:48.746Z,996.95
2017-03-05T12:17:01.810Z,996.93
2017-03-05T12:18:14.903Z,996.84
2017-03-05T12:19:27.981Z,996.86
2017-03-05T12:20:41.057Z,996.88
2017-03-05T12:21:54.140Z,996.89
2017-03-05T12:23:07.261Z,996.94
2017-03-05T12:24:20.331Z,996.86
2017-03-05T12:25:33.389Z,996.84
2017-03-05T12:26:46.137Z,996.88
2017-03-05T12:27:58.848Z,996.78
2017-03-05T12:29:11.918Z,996.82
2017-03-05T12:30:24.999Z,996.74
2017-03-05T12:31:38.060Z,996.79
2017-03-05T12:32:51.152Z,996.88
2017-03-05T12:34:04.238Z,996.95
2017-03-05T12:35:17.326Z,996.9
2017-03-05T12:36:30.402Z,996.91
2017-03-05T12:37:43.468Z,996.98
2017-03-05T12:38:56.556Z,996.87
2017-03-05T12:40:09.613Z,996.95
2017-03-05T12:41:21.926Z,996.98
2017-03-05T12:42:35.023Z,996.93
2017-03-05T12:43:48.097Z,996.89
2017-03-05T12:45:01.164Z,996.87
2017-03-05T12:46:14.261Z,996.88
2017-03-05T12:47:27.352Z,996.84
2017-03-05T12:48:40.408Z,996.8
2017-03-05T12:49:53.453Z,996.83
2017-03-05T12:51:06.141Z,996.89
2017-03-05T12:52:19.239Z,996.9
2017-03-05T12:53:32.339Z,996.9
2017-03-05T12:54:45.378Z,996.94
2017-03-05T12:55:58.456Z,996.94
2017-03-05T12:57:11.555Z,996.89
2017-03-05T12:58:24.644Z,996.95
2017-03-05T12:59:37.717Z,996.89
2017-03-05T13:00:50.816Z,996.82
2017-03-05T13:02:03.903Z,996.83
2017-03-05T13:03:17.030Z,996.79
2017-03-05T13:04:29.702Z,996.72
2017-03-05T13:05:42.776Z,996.69
2017-03-05T13:06:55.848Z,996.7
2017-03-05T13:08:08.936Z,996.72
2017-03-05T13:09:22.014Z,996.75
2017-03-05T13:10:35.103Z,996.74
2017-03-05T13:11:48.174Z,996.72
2017-03-05T13:13:01.233Z,996.77
2017-03-05T13:14:14.348Z,996.77
2017-03-05T13:15:27.432Z,996.76
2017-03-05T13:16:40.540Z,996.78
2017-03-05T13:17:53.256Z,996.76
2017-03-05T13:19:05.946Z,996.75
2017-03-05T13:20:19.027Z,996.73
2017-03-05T13:21:32.112Z,996.81
2017-03-05T13:22:44.765Z,996.79
2017-03-05T13:23:57.841Z,996.76
2017-03-05T13:25:10.136Z,996.85
2017-03-05T13:26:23.229Z,996.86
2017-03-05T13:27:36.328Z,996.83
2017-03-05T13:28:49.412Z,996.88
2017-03-05T13:30:02.462Z,996.77
2017-03-05T13:31:15.133Z,996.74
2017-03-05T13:32:28.250Z,996.8
2017-03-05T13:33:41.332Z,996.86
2017-03-05T13:34:54.400Z,996.9
2017-03-05T13:36:07.473Z,996.84
2017-03-05T13:37:20.622Z,996.83
2017-03-05T13:38:33.679Z,996.87
2017-03-05T13:39:46.407Z,996.92
2017-03-05T13:40:59.472Z,996.88
2017-03-05T13:42:12.153Z,996.83
2017-03-05T13:43:25.246Z,996.87
2017-03-05T13:44:38.320Z,996.84
2017-03-05T13:45:51.041Z,996.89
2017-03-05T13:47:03.733Z,996.81
2017-03-05T13:48:16.832Z,996.94
2017-03-05T13:49:29.930Z,997.03
2017-03-05T13:50:42.999Z,997
2017-03-05T13:51:56.117Z,996.94
2017-03-05T13:53:08.834Z,996.96
2017-03-05T13:54:21.933Z,996.98
2017-03-05T13:55:35.032Z,996.94
2017-03-05T13:56:48.125Z,997
2017-03-05T13:58:01.199Z,997.02
2017-03-05T13:59:13.492Z,997.02
2017-03-05T14:00:26.567Z,997.03
2017-03-05T14:01:39.686Z,997.01
2017-03-05T14:02:52.835Z,997
2017-03-05T14:04:05.905Z,996.96
2017-03-05T14:05:18.217Z,996.86
2017-03-05T14:06:31.613Z,996.94
2017-03-05T14:07:44.665Z,996.93
2017-03-05T14:08:57.737Z,996.95
2017-03-05T14:10:10.798Z,996.91
2017-03-05T14:11:23.496Z,996.85
2017-03-05T14:12:36.597Z,996.89
2017-03-05T14:13:49.667Z,996.86
2017-03-05T14:15:02.713Z,996.78
2017-03-05T14:16:15.055Z,996.78
2017-03-05T14:17:28.129Z,996.79
2017-03-05T14:18:41.181Z,996.84
2017-03-05T14:19:54.271Z,996.81
2017-03-05T14:21:07.392Z,996.81
2017-03-05T14:22:20.485Z,996.8
2017-03-05T14:23:33.559Z,996.8
2017-03-05T14:24:46.632Z,996.81
2017-03-05T14:25:59.321Z,996.8
2017-03-05T14:27:12.024Z,996.75
2017-03-05T14:28:25.088Z,996.78
2017-03-05T14:29:38.158Z,996.71
2017-03-05T14:30:51.261Z,996.7
2017-03-05T14:32:04.325Z,996.7
2017-03-05T14:33:17.421Z,996.72
2017-03-05T14:34:30.538Z,996.74
2017-03-05T14:35:43.221Z,996.7
2017-03-05T14:36:56.281Z,996.76
2017-03-05T14:38:09.359Z,996.72
2017-03-05T14:39:21.676Z,996.72
2017-03-05T14:40:34.004Z,996.75
2017-03-05T14:41:47.067Z,996.69
2017-03-05T14:42:59.795Z,996.79
2017-03-05T14:44:12.884Z,996.79
2017-03-05T14:45:25.980Z,996.75
2017-03-05T14:46:39.084Z,996.66
2017-03-05T14:47:52.154Z,996.65
2017-03-05T14:49:05.205Z,996.63
2017-03-05T14:50:18.285Z,996.69
2017-03-05T14:51:30.968Z,996.68
2017-03-05T14:52:44.060Z,996.65
2017-03-05T14:53:57.131Z,996.61
2017-03-05T14:55:10.197Z,996.64
2017-03-05T14:56:23.259Z,996.64
2017-03-05T14:57:36.319Z,996.65
2017-03-05T14:58:49.408Z,996.67
2017-03-05T15:00:02.489Z,996.65
2017-03-05T15:01:15.581Z,996.58
2017-03-05T15:02:27.934Z,996.61
2017-03-05T15:03:40.674Z,996.62
2017-03-05T15:04:53.422Z,996.63
2017-03-05T15:06:06.489Z,996.64
2017-03-05T15:07:19.165Z,996.65
2017-03-05T15:08:32.252Z,996.65
2017-03-05T15:09:45.323Z,996.64
2017-03-05T15:10:58.423Z,996.7
2017-03-05T15:12:11.539Z,996.75
2017-03-05T15:13:24.260Z,996.68
2017-03-05T15:14:36.961Z,996.7